sensor_id;sensor_type;location;lat;lon;timestamp;P1;durP1;ratioP1;P2;durP2;ratioP2
43606;SDS011;29197;44.788;10.366;2023-04-03T00:01:27;1.85;;;0.88;;
43606;SDS011;29197;44.788;10.366;2023-04-03T00:04:15;1.27;;;1.15;;
43606;SDS011;29197;44.788;10.366;2023-04-03T00:07:04;1.50;;;1.30;;
43606;SDS011;29197;44.788;10.366;2023-04-03T00:09:53;2.10;;;1.30;;
43606;SDS011;29197;44.788;10.366;2023-04-03T00:12:42;1.10;;;1.00;;
43606;SDS011;29197;44.788;10.366;2023-04-03T00:15:31;1.10;;;1.00;;
43606;SDS011;29197;44.788;10.366;2023-04-03T00:18:20;1.00;;;0.90;;
43606;SDS011;29197;44.788;10.366;2023-04-03T00:21:09;1.40;;;1.20;;
43606;SDS011;29197;44.788;10.366;2023-04-03T00:23:59;1.20;;;1.10;;
43606;SDS011;29197;44.788;10.366;2023-04-03T00:26:49;1.20;;;1.00;;
43606;SDS011;29197;44.788;10.366;2023-04-03T00:29:38;1.10;;;0.82;;
43606;SDS011;29197;44.788;10.366;2023-04-03T00:32:27;1.65;;;1.20;;
43606;SDS011;29197;44.788;10.366;2023-04-03T00:35:15;1.30;;;1.08;;
43606;SDS011;29197;44.788;10.366;2023-04-03T00:38:04;2.70;;;1.30;;
43606;SDS011;29197;44.788;10.366;2023-04-03T00:40:53;2.20;;;1.10;;
43606;SDS011;29197;44.788;10.366;2023-04-03T00:43:42;1.83;;;1.23;;
43606;SDS011;29197;44.788;10.366;2023-04-03T00:46:31;1.55;;;1.33;;
43606;SDS011;29197;44.788;10.366;2023-04-03T00:49:20;0.93;;;0.90;;
43606;SDS011;29197;44.788;10.366;2023-04-03T00:52:08;1.20;;;1.00;;
43606;SDS011;29197;44.788;10.366;2023-04-03T00:55:02;1.33;;;1.20;;
43606;SDS011;29197;44.788;10.366;2023-04-03T00:57:53;1.48;;;1.27;;
43606;SDS011;29197;44.788;10.366;2023-04-03T01:00:46;1.80;;;1.15;;
43606;SDS011;29197;44.788;10.366;2023-04-03T01:03:42;1.30;;;1.10;;
43606;SDS011;29197;44.788;10.366;2023-04-03T01:06:32;1.40;;;1.27;;
43606;SDS011;29197;44.788;10.366;2023-04-03T01:09:22;1.63;;;1.30;;
43606;SDS011;29197;44.788;10.366;2023-04-03T01:12:14;1.50;;;1.40;;
43606;SDS011;29197;44.788;10.366;2023-04-03T01:15:05;1.92;;;1.40;;
43606;SDS011;29197;44.788;10.366;2023-04-03T01:17:57;2.50;;;1.30;;
43606;SDS011;29197;44.788;10.366;2023-04-03T01:20:57;1.60;;;1.50;;
43606;SDS011;29197;44.788;10.366;2023-04-03T01:27:19;1.70;;;1.40;;
43606;SDS011;29197;44.788;10.366;2023-04-03T01:30:08;2.07;;;1.50;;
43606;SDS011;29197;44.788;10.366;2023-04-03T01:32:59;1.55;;;1.45;;
43606;SDS011;29197;44.788;10.366;2023-04-03T01:35:48;1.55;;;1.30;;
43606;SDS011;29197;44.788;10.366;2023-04-03T01:38:36;2.65;;;1.80;;
43606;SDS011;29197;44.788;10.366;2023-04-03T01:41:25;1.60;;;1.50;;
43606;SDS011;29197;44.788;10.366;2023-04-03T01:44:14;1.95;;;1.60;;
43606;SDS011;29197;44.788;10.366;2023-04-03T01:47:04;1.40;;;1.30;;
43606;SDS011;29197;44.788;10.366;2023-04-03T01:49:55;1.40;;;1.30;;
43606;SDS011;29197;44.788;10.366;2023-04-03T01:52:43;2.25;;;1.30;;
43606;SDS011;29197;44.788;10.366;2023-04-03T01:55:32;2.30;;;1.70;;
43606;SDS011;29197;44.788;10.366;2023-04-03T01:58:20;2.28;;;2.03;;
43606;SDS011;29197;44.788;10.366;2023-04-03T02:01:09;1.58;;;1.48;;
43606;SDS011;29197;44.788;10.366;2023-04-03T02:03:57;2.88;;;1.92;;
43606;SDS011;29197;44.788;10.366;2023-04-03T02:06:47;1.47;;;1.30;;
43606;SDS011;29197;44.788;10.366;2023-04-03T02:09:36;2.60;;;1.75;;
43606;SDS011;29197;44.788;10.366;2023-04-03T02:12:24;3.20;;;1.88;;
43606;SDS011;29197;44.788;10.366;2023-04-03T02:15:13;2.53;;;1.60;;
43606;SDS011;29197;44.788;10.366;2023-04-03T02:18:01;2.95;;;2.30;;
43606;SDS011;29197;44.788;10.366;2023-04-03T02:20:53;2.85;;;1.52;;
43606;SDS011;29197;44.788;10.366;2023-04-03T02:23:43;1.85;;;1.75;;
43606;SDS011;29197;44.788;10.366;2023-04-03T02:26:31;3.30;;;2.10;;
43606;SDS011;29197;44.788;10.366;2023-04-03T02:29:20;1.63;;;1.52;;
43606;SDS011;29197;44.788;10.366;2023-04-03T02:32:09;2.13;;;1.70;;
43606;SDS011;29197;44.788;10.366;2023-04-03T02:34:57;2.33;;;1.58;;
43606;SDS011;29197;44.788;10.366;2023-04-03T02:37:46;2.47;;;1.40;;
43606;SDS011;29197;44.788;10.366;2023-04-03T02:40:36;1.95;;;1.50;;
43606;SDS011;29197;44.788;10.366;2023-04-03T02:43:25;2.10;;;1.70;;
43606;SDS011;29197;44.788;10.366;2023-04-03T02:46:14;2.20;;;1.52;;
43606;SDS011;29197;44.788;10.366;2023-04-03T02:49:02;1.80;;;1.50;;
43606;SDS011;29197;44.788;10.366;2023-04-03T02:51:51;2.08;;;1.58;;
43606;SDS011;29197;44.788;10.366;2023-04-03T02:54:40;1.47;;;1.20;;
43606;SDS011;29197;44.788;10.366;2023-04-03T02:57:30;1.65;;;1.50;;
43606;SDS011;29197;44.788;10.366;2023-04-03T03:00:19;2.42;;;1.70;;
43606;SDS011;29197;44.788;10.366;2023-04-03T03:03:08;1.60;;;1.30;;
43606;SDS011;29197;44.788;10.366;2023-04-03T03:06:03;1.63;;;1.50;;
43606;SDS011;29197;44.788;10.366;2023-04-03T03:08:52;2.75;;;2.00;;
43606;SDS011;29197;44.788;10.366;2023-04-03T03:11:40;2.30;;;2.05;;
43606;SDS011;29197;44.788;10.366;2023-04-03T03:14:30;2.30;;;2.00;;
43606;SDS011;29197;44.788;10.366;2023-04-03T03:17:19;2.60;;;2.20;;
43606;SDS011;29197;44.788;10.366;2023-04-03T03:20:07;2.80;;;2.25;;
43606;SDS011;29197;44.788;10.366;2023-04-03T03:22:56;2.20;;;2.00;;
43606;SDS011;29197;44.788;10.366;2023-04-03T03:25:45;2.53;;;1.80;;
43606;SDS011;29197;44.788;10.366;2023-04-03T03:28:34;1.87;;;1.77;;
43606;SDS011;29197;44.788;10.366;2023-04-03T03:31:25;2.65;;;2.10;;
43606;SDS011;29197;44.788;10.366;2023-04-03T03:34:14;1.98;;;1.70;;
43606;SDS011;29197;44.788;10.366;2023-04-03T03:37:02;2.55;;;1.75;;
43606;SDS011;29197;44.788;10.366;2023-04-03T03:39:51;1.70;;;1.60;;
43606;SDS011;29197;44.788;10.366;2023-04-03T03:42:39;2.03;;;1.77;;
43606;SDS011;29197;44.788;10.366;2023-04-03T03:45:28;3.10;;;2.15;;
43606;SDS011;29197;44.788;10.366;2023-04-03T03:48:18;1.50;;;1.40;;
43606;SDS011;29197;44.788;10.366;2023-04-03T03:51:08;2.33;;;1.80;;
43606;SDS011;29197;44.788;10.366;2023-04-03T03:53:56;2.05;;;1.55;;
43606;SDS011;29197;44.788;10.366;2023-04-03T03:56:44;2.60;;;2.10;;
43606;SDS011;29197;44.788;10.366;2023-04-03T03:59:33;2.40;;;1.90;;
43606;SDS011;29197;44.788;10.366;2023-04-03T04:02:27;1.75;;;1.65;;
43606;SDS011;29197;44.788;10.366;2023-04-03T04:05:20;2.22;;;1.67;;
43606;SDS011;29197;44.788;10.366;2023-04-03T04:08:09;2.63;;;1.85;;
43606;SDS011;29197;44.788;10.366;2023-04-03T04:10:57;1.90;;;1.77;;
43606;SDS011;29197;44.788;10.366;2023-04-03T04:13:46;1.90;;;1.70;;
43606;SDS011;29197;44.788;10.366;2023-04-03T04:16:34;2.58;;;2.00;;
43606;SDS011;29197;44.788;10.366;2023-04-03T04:19:23;2.30;;;1.80;;
43606;SDS011;29197;44.788;10.366;2023-04-03T04:22:13;2.60;;;2.13;;
43606;SDS011;29197;44.788;10.366;2023-04-03T04:25:01;3.10;;;1.80;;
43606;SDS011;29197;44.788;10.366;2023-04-03T04:27:50;2.25;;;2.05;;
43606;SDS011;29197;44.788;10.366;2023-04-03T04:30:38;2.72;;;1.98;;
43606;SDS011;29197;44.788;10.366;2023-04-03T04:33:27;1.93;;;1.73;;
43606;SDS011;29197;44.788;10.366;2023-04-03T04:36:15;2.20;;;2.00;;
43606;SDS011;29197;44.788;10.366;2023-04-03T04:39:05;2.90;;;2.20;;
43606;SDS011;29197;44.788;10.366;2023-04-03T04:41:54;2.03;;;1.70;;
43606;SDS011;29197;44.788;10.366;2023-04-03T04:44:43;2.40;;;2.10;;
43606;SDS011;29197;44.788;10.366;2023-04-03T04:47:32;2.30;;;1.80;;
43606;SDS011;29197;44.788;10.366;2023-04-03T04:50:20;2.88;;;1.85;;
43606;SDS011;29197;44.788;10.366;2023-04-03T04:53:09;2.15;;;1.95;;
43606;SDS011;29197;44.788;10.366;2023-04-03T04:55:59;2.70;;;2.00;;
43606;SDS011;29197;44.788;10.366;2023-04-03T04:58:47;2.28;;;2.00;;
43606;SDS011;29197;44.788;10.366;2023-04-03T05:01:36;2.70;;;1.88;;
43606;SDS011;29197;44.788;10.366;2023-04-03T05:04:24;2.33;;;1.80;;
43606;SDS011;29197;44.788;10.366;2023-04-03T05:07:13;3.73;;;1.93;;
43606;SDS011;29197;44.788;10.366;2023-04-03T05:10:01;3.60;;;2.03;;
43606;SDS011;29197;44.788;10.366;2023-04-03T05:12:52;2.25;;;1.90;;
43606;SDS011;29197;44.788;10.366;2023-04-03T05:15:40;2.42;;;1.95;;
43606;SDS011;29197;44.788;10.366;2023-04-03T05:18:29;2.40;;;1.90;;
43606;SDS011;29197;44.788;10.366;2023-04-03T05:21:17;2.47;;;2.20;;
43606;SDS011;29197;44.788;10.366;2023-04-03T05:24:08;2.80;;;1.80;;
43606;SDS011;29197;44.788;10.366;2023-04-03T05:26:56;2.42;;;2.10;;
43606;SDS011;29197;44.788;10.366;2023-04-03T05:29:46;2.90;;;2.50;;
43606;SDS011;29197;44.788;10.366;2023-04-03T05:32:35;2.90;;;1.90;;
43606;SDS011;29197;44.788;10.366;2023-04-03T05:35:23;4.97;;;2.65;;
43606;SDS011;29197;44.788;10.366;2023-04-03T05:38:12;2.80;;;2.50;;
43606;SDS011;29197;44.788;10.366;2023-04-03T05:41:01;2.60;;;2.30;;
43606;SDS011;29197;44.788;10.366;2023-04-03T05:43:50;2.50;;;2.25;;
43606;SDS011;29197;44.788;10.366;2023-04-03T05:46:40;2.60;;;2.17;;
43606;SDS011;29197;44.788;10.366;2023-04-03T05:49:28;2.40;;;2.20;;
43606;SDS011;29197;44.788;10.366;2023-04-03T05:52:17;2.42;;;1.83;;
43606;SDS011;29197;44.788;10.366;2023-04-03T05:55:10;3.78;;;2.30;;
43606;SDS011;29197;44.788;10.366;2023-04-03T05:57:58;2.70;;;2.28;;
43606;SDS011;29197;44.788;10.366;2023-04-03T06:00:47;3.88;;;2.30;;
43606;SDS011;29197;44.788;10.366;2023-04-03T06:03:37;2.43;;;2.23;;
43606;SDS011;29197;44.788;10.366;2023-04-03T06:06:29;4.35;;;3.00;;
43606;SDS011;29197;44.788;10.366;2023-04-03T06:09:31;5.43;;;2.90;;
43606;SDS011;29197;44.788;10.366;2023-04-03T06:12:20;4.00;;;3.20;;
43606;SDS011;29197;44.788;10.366;2023-04-03T06:15:08;3.75;;;2.67;;
43606;SDS011;29197;44.788;10.366;2023-04-03T06:17:58;2.72;;;2.38;;
43606;SDS011;29197;44.788;10.366;2023-04-03T06:20:48;3.83;;;2.97;;
43606;SDS011;29197;44.788;10.366;2023-04-03T06:23:36;2.67;;;2.40;;
43606;SDS011;29197;44.788;10.366;2023-04-03T06:26:25;3.38;;;2.90;;
43606;SDS011;29197;44.788;10.366;2023-04-03T06:29:13;2.80;;;2.45;;
43606;SDS011;29197;44.788;10.366;2023-04-03T06:32:02;3.95;;;2.75;;
43606;SDS011;29197;44.788;10.366;2023-04-03T06:34:50;3.45;;;2.65;;
43606;SDS011;29197;44.788;10.366;2023-04-03T06:37:41;5.05;;;3.17;;
43606;SDS011;29197;44.788;10.366;2023-04-03T06:40:30;5.07;;;3.23;;
43606;SDS011;29197;44.788;10.366;2023-04-03T06:43:18;4.35;;;3.20;;
43606;SDS011;29197;44.788;10.366;2023-04-03T06:46:12;3.30;;;3.00;;
43606;SDS011;29197;44.788;10.366;2023-04-03T06:49:02;3.78;;;2.90;;
43606;SDS011;29197;44.788;10.366;2023-04-03T06:51:51;4.32;;;2.85;;
43606;SDS011;29197;44.788;10.366;2023-04-03T06:54:40;3.47;;;3.00;;
43606;SDS011;29197;44.788;10.366;2023-04-03T06:57:29;3.88;;;3.28;;
43606;SDS011;29197;44.788;10.366;2023-04-03T07:00:18;4.68;;;3.70;;
43606;SDS011;29197;44.788;10.366;2023-04-03T07:03:07;7.03;;;4.35;;
43606;SDS011;29197;44.788;10.366;2023-04-03T07:05:56;5.13;;;4.55;;
43606;SDS011;29197;44.788;10.366;2023-04-03T07:08:44;5.63;;;4.20;;
43606;SDS011;29197;44.788;10.366;2023-04-03T07:11:36;5.57;;;4.18;;
43606;SDS011;29197;44.788;10.366;2023-04-03T07:14:24;6.45;;;5.57;;
43606;SDS011;29197;44.788;10.366;2023-04-03T07:17:13;5.87;;;4.87;;
43606;SDS011;29197;44.788;10.366;2023-04-03T07:20:01;5.18;;;4.50;;
43606;SDS011;29197;44.788;10.366;2023-04-03T07:22:50;5.80;;;3.15;;
43606;SDS011;29197;44.788;10.366;2023-04-03T07:25:41;7.30;;;6.15;;
43606;SDS011;29197;44.788;10.366;2023-04-03T07:28:32;6.63;;;5.83;;
43606;SDS011;29197;44.788;10.366;2023-04-03T07:31:20;7.07;;;5.70;;
43606;SDS011;29197;44.788;10.366;2023-04-03T07:34:09;8.95;;;5.72;;
43606;SDS011;29197;44.788;10.366;2023-04-03T07:36:58;7.80;;;5.40;;
43606;SDS011;29197;44.788;10.366;2023-04-03T07:39:47;6.20;;;4.97;;
43606;SDS011;29197;44.788;10.366;2023-04-03T07:42:36;5.78;;;5.05;;
43606;SDS011;29197;44.788;10.366;2023-04-03T07:45:26;6.43;;;4.50;;
43606;SDS011;29197;44.788;10.366;2023-04-03T07:48:15;6.40;;;4.53;;
43606;SDS011;29197;44.788;10.366;2023-04-03T07:51:04;6.90;;;4.80;;
43606;SDS011;29197;44.788;10.366;2023-04-03T07:53:53;7.90;;;4.68;;
43606;SDS011;29197;44.788;10.366;2023-04-03T07:56:42;6.27;;;5.57;;
43606;SDS011;29197;44.788;10.366;2023-04-03T07:59:30;6.78;;;5.50;;
43606;SDS011;29197;44.788;10.366;2023-04-03T08:02:20;5.95;;;5.32;;
43606;SDS011;29197;44.788;10.366;2023-04-03T08:05:08;9.80;;;6.87;;
43606;SDS011;29197;44.788;10.366;2023-04-03T08:07:57;91.97;;;59.50;;
43606;SDS011;29197;44.788;10.366;2023-04-03T08:10:48;82.32;;;55.78;;
43606;SDS011;29197;44.788;10.366;2023-04-03T08:13:38;18.92;;;13.77;;
43606;SDS011;29197;44.788;10.366;2023-04-03T08:16:28;10.93;;;8.07;;
43606;SDS011;29197;44.788;10.366;2023-04-03T08:19:18;23.02;;;16.27;;
43606;SDS011;29197;44.788;10.366;2023-04-03T08:22:12;12.13;;;8.85;;
43606;SDS011;29197;44.788;10.366;2023-04-03T08:25:01;17.07;;;12.53;;
43606;SDS011;29197;44.788;10.366;2023-04-03T08:27:50;15.18;;;10.35;;
43606;SDS011;29197;44.788;10.366;2023-04-03T08:30:38;10.15;;;7.85;;
43606;SDS011;29197;44.788;10.366;2023-04-03T08:33:29;10.55;;;7.35;;
43606;SDS011;29197;44.788;10.366;2023-04-03T08:36:20;9.10;;;7.25;;
43606;SDS011;29197;44.788;10.366;2023-04-03T08:39:10;8.82;;;7.55;;
43606;SDS011;29197;44.788;10.366;2023-04-03T08:41:59;9.63;;;7.93;;
43606;SDS011;29197;44.788;10.366;2023-04-03T08:44:54;9.68;;;7.03;;
43606;SDS011;29197;44.788;10.366;2023-04-03T08:47:50;8.63;;;6.30;;
43606;SDS011;29197;44.788;10.366;2023-04-03T08:50:46;9.20;;;7.07;;
43606;SDS011;29197;44.788;10.366;2023-04-03T08:53:41;6.47;;;5.85;;
43606;SDS011;29197;44.788;10.366;2023-04-03T08:56:33;10.65;;;7.38;;
43606;SDS011;29197;44.788;10.366;2023-04-03T08:59:24;7.90;;;6.15;;
43606;SDS011;29197;44.788;10.366;2023-04-03T09:02:21;9.15;;;7.22;;
43606;SDS011;29197;44.788;10.366;2023-04-03T09:05:15;7.68;;;6.75;;
43606;SDS011;29197;44.788;10.366;2023-04-03T09:08:07;10.30;;;7.65;;
43606;SDS011;29197;44.788;10.366;2023-04-03T09:11:06;8.45;;;6.70;;
43606;SDS011;29197;44.788;10.366;2023-04-03T09:14:04;8.07;;;6.10;;
43606;SDS011;29197;44.788;10.366;2023-04-03T09:17:02;9.60;;;7.40;;
43606;SDS011;29197;44.788;10.366;2023-04-03T09:19:57;7.18;;;5.53;;
43606;SDS011;29197;44.788;10.366;2023-04-03T09:22:50;6.88;;;5.78;;
43606;SDS011;29197;44.788;10.366;2023-04-03T09:25:39;7.30;;;6.35;;
43606;SDS011;29197;44.788;10.366;2023-04-03T09:28:29;6.88;;;5.82;;
43606;SDS011;29197;44.788;10.366;2023-04-03T09:31:35;6.45;;;5.07;;
43606;SDS011;29197;44.788;10.366;2023-04-03T09:34:28;8.05;;;6.05;;
43606;SDS011;29197;44.788;10.366;2023-04-03T09:40:29;7.13;;;5.57;;
43606;SDS011;29197;44.788;10.366;2023-04-03T09:43:26;7.05;;;5.00;;
43606;SDS011;29197;44.788;10.366;2023-04-03T09:46:20;6.70;;;4.88;;
43606;SDS011;29197;44.788;10.366;2023-04-03T09:49:16;8.87;;;5.20;;
43606;SDS011;29197;44.788;10.366;2023-04-03T09:52:17;4.78;;;3.90;;
43606;SDS011;29197;44.788;10.366;2023-04-03T09:55:08;5.47;;;4.10;;
43606;SDS011;29197;44.788;10.366;2023-04-03T09:58:04;4.97;;;3.80;;
43606;SDS011;29197;44.788;10.366;2023-04-03T10:01:20;3.97;;;3.33;;
43606;SDS011;29197;44.788;10.366;2023-04-03T10:04:14;5.53;;;3.60;;
43606;SDS011;29197;44.788;10.366;2023-04-03T10:07:04;4.57;;;3.58;;
43606;SDS011;29197;44.788;10.366;2023-04-03T10:10:18;3.17;;;2.88;;
43606;SDS011;29197;44.788;10.366;2023-04-03T10:13:11;3.45;;;2.45;;
43606;SDS011;29197;44.788;10.366;2023-04-03T10:16:07;7.60;;;4.00;;
43606;SDS011;29197;44.788;10.366;2023-04-03T10:19:05;3.28;;;2.90;;
43606;SDS011;29197;44.788;10.366;2023-04-03T10:22:10;5.32;;;2.75;;
43606;SDS011;29197;44.788;10.366;2023-04-03T10:25:08;3.70;;;2.85;;
43606;SDS011;29197;44.788;10.366;2023-04-03T10:28:03;3.47;;;3.17;;
43606;SDS011;29197;44.788;10.366;2023-04-03T10:30:58;4.85;;;3.30;;
43606;SDS011;29197;44.788;10.366;2023-04-03T10:33:59;3.95;;;3.25;;
43606;SDS011;29197;44.788;10.366;2023-04-03T10:36:54;3.83;;;3.08;;
43606;SDS011;29197;44.788;10.366;2023-04-03T10:39:47;3.33;;;3.00;;
43606;SDS011;29197;44.788;10.366;2023-04-03T10:42:42;5.43;;;3.63;;
43606;SDS011;29197;44.788;10.366;2023-04-03T10:45:43;4.57;;;3.53;;
43606;SDS011;29197;44.788;10.366;2023-04-03T10:48:48;4.65;;;3.45;;
43606;SDS011;29197;44.788;10.366;2023-04-03T10:52:05;2.92;;;2.60;;
43606;SDS011;29197;44.788;10.366;2023-04-03T10:55:02;2.97;;;2.10;;
43606;SDS011;29197;44.788;10.366;2023-04-03T10:58:18;4.10;;;2.60;;
43606;SDS011;29197;44.788;10.366;2023-04-03T11:01:16;3.80;;;2.80;;
43606;SDS011;29197;44.788;10.366;2023-04-03T11:04:08;2.88;;;2.50;;
43606;SDS011;29197;44.788;10.366;2023-04-03T11:07:01;3.85;;;2.78;;
43606;SDS011;29197;44.788;10.366;2023-04-03T11:09:54;2.97;;;1.87;;
43606;SDS011;29197;44.788;10.366;2023-04-03T11:12:47;2.53;;;1.80;;
43606;SDS011;29197;44.788;10.366;2023-04-03T11:15:40;1.60;;;1.30;;
43606;SDS011;29197;44.788;10.366;2023-04-03T11:18:31;1.70;;;1.50;;
43606;SDS011;29197;44.788;10.366;2023-04-03T11:21:28;1.60;;;1.25;;
43606;SDS011;29197;44.788;10.366;2023-04-03T11:24:22;1.73;;;1.10;;
43606;SDS011;29197;44.788;10.366;2023-04-03T11:27:15;1.33;;;0.98;;
43606;SDS011;29197;44.788;10.366;2023-04-03T11:30:11;1.50;;;1.20;;
43606;SDS011;29197;44.788;10.366;2023-04-03T11:33:12;1.10;;;1.00;;
43606;SDS011;29197;44.788;10.366;2023-04-03T11:36:12;1.77;;;1.10;;
43606;SDS011;29197;44.788;10.366;2023-04-03T11:39:19;2.17;;;1.10;;
43606;SDS011;29197;44.788;10.366;2023-04-03T11:42:15;2.15;;;0.90;;
43606;SDS011;29197;44.788;10.366;2023-04-03T11:51:39;2.90;;;1.15;;
43606;SDS011;29197;44.788;10.366;2023-04-03T11:54:42;1.00;;;0.73;;
43606;SDS011;29197;44.788;10.366;2023-04-03T11:57:47;1.08;;;0.82;;
43606;SDS011;29197;44.788;10.366;2023-04-03T12:00:53;1.30;;;0.80;;
43606;SDS011;29197;44.788;10.366;2023-04-03T12:10:16;2.13;;;1.00;;
43606;SDS011;29197;44.788;10.366;2023-04-03T12:13:18;0.95;;;0.55;;
43606;SDS011;29197;44.788;10.366;2023-04-03T12:16:07;1.20;;;0.60;;
43606;SDS011;29197;44.788;10.366;2023-04-03T12:22:26;3.17;;;2.87;;
43606;SDS011;29197;44.788;10.366;2023-04-03T12:28:38;15.43;;;13.93;;
43606;SDS011;29197;44.788;10.366;2023-04-03T12:31:32;2.22;;;1.98;;
43606;SDS011;29197;44.788;10.366;2023-04-03T12:34:37;2.00;;;1.00;;
43606;SDS011;29197;44.788;10.366;2023-04-03T12:37:42;2.15;;;0.80;;
43606;SDS011;29197;44.788;10.366;2023-04-03T12:40:43;1.63;;;0.88;;
43606;SDS011;29197;44.788;10.366;2023-04-03T12:43:42;2.17;;;0.75;;
43606;SDS011;29197;44.788;10.366;2023-04-03T12:46:42;2.13;;;0.93;;
43606;SDS011;29197;44.788;10.366;2023-04-03T12:49:33;1.90;;;0.70;;
43606;SDS011;29197;44.788;10.366;2023-04-03T12:52:30;1.50;;;1.00;;
43606;SDS011;29197;44.788;10.366;2023-04-03T12:55:21;1.63;;;0.87;;
43606;SDS011;29197;44.788;10.366;2023-04-03T12:58:15;1.75;;;1.00;;
43606;SDS011;29197;44.788;10.366;2023-04-03T13:01:09;1.05;;;0.80;;
43606;SDS011;29197;44.788;10.366;2023-04-03T13:04:00;1.40;;;0.80;;
43606;SDS011;29197;44.788;10.366;2023-04-03T13:06:50;2.20;;;1.10;;
43606;SDS011;29197;44.788;10.366;2023-04-03T13:09:40;1.30;;;1.00;;
43606;SDS011;29197;44.788;10.366;2023-04-03T13:12:28;3.28;;;2.00;;
43606;SDS011;29197;44.788;10.366;2023-04-03T13:15:20;20.73;;;9.63;;
43606;SDS011;29197;44.788;10.366;2023-04-03T13:18:21;8.95;;;3.65;;
43606;SDS011;29197;44.788;10.366;2023-04-03T13:21:13;4.45;;;2.38;;
43606;SDS011;29197;44.788;10.366;2023-04-03T13:24:04;2.08;;;1.40;;
43606;SDS011;29197;44.788;10.366;2023-04-03T13:27:01;1.88;;;1.30;;
43606;SDS011;29197;44.788;10.366;2023-04-03T13:29:51;1.75;;;1.17;;
43606;SDS011;29197;44.788;10.366;2023-04-03T13:32:42;17.17;;;7.35;;
43606;SDS011;29197;44.788;10.366;2023-04-03T13:35:35;3.27;;;2.10;;
43606;SDS011;29197;44.788;10.366;2023-04-03T13:38:29;3.35;;;2.00;;
43606;SDS011;29197;44.788;10.366;2023-04-03T13:41:24;4.22;;;2.38;;
43606;SDS011;29197;44.788;10.366;2023-04-03T13:44:25;4.60;;;2.10;;
43606;SDS011;29197;44.788;10.366;2023-04-03T13:47:18;2.15;;;1.48;;
43606;SDS011;29197;44.788;10.366;2023-04-03T13:50:15;3.20;;;1.65;;
43606;SDS011;29197;44.788;10.366;2023-04-03T13:53:09;3.63;;;1.90;;
43606;SDS011;29197;44.788;10.366;2023-04-03T13:56:15;2.53;;;1.85;;
43606;SDS011;29197;44.788;10.366;2023-04-03T13:59:19;2.25;;;1.75;;
43606;SDS011;29197;44.788;10.366;2023-04-03T14:02:14;1.60;;;1.10;;
43606;SDS011;29197;44.788;10.366;2023-04-03T14:05:05;1.63;;;1.25;;
43606;SDS011;29197;44.788;10.366;2023-04-03T14:07:56;2.40;;;1.58;;
43606;SDS011;29197;44.788;10.366;2023-04-03T14:10:45;1.77;;;1.00;;
43606;SDS011;29197;44.788;10.366;2023-04-03T14:13:36;3.83;;;1.88;;
43606;SDS011;29197;44.788;10.366;2023-04-03T14:16:26;3.85;;;1.65;;
43606;SDS011;29197;44.788;10.366;2023-04-03T14:19:20;3.85;;;1.70;;
43606;SDS011;29197;44.788;10.366;2023-04-03T14:22:11;3.65;;;1.83;;
43606;SDS011;29197;44.788;10.366;2023-04-03T14:25:05;3.33;;;1.60;;
43606;SDS011;29197;44.788;10.366;2023-04-03T14:27:54;3.05;;;1.67;;
43606;SDS011;29197;44.788;10.366;2023-04-03T14:30:43;5.87;;;1.43;;
43606;SDS011;29197;44.788;10.366;2023-04-03T14:33:32;2.33;;;1.50;;
43606;SDS011;29197;44.788;10.366;2023-04-03T14:36:23;6.40;;;1.65;;
43606;SDS011;29197;44.788;10.366;2023-04-03T14:39:16;3.33;;;1.50;;
43606;SDS011;29197;44.788;10.366;2023-04-03T14:42:09;3.10;;;1.30;;
43606;SDS011;29197;44.788;10.366;2023-04-03T14:45:03;2.78;;;1.38;;
43606;SDS011;29197;44.788;10.366;2023-04-03T14:47:54;3.22;;;1.50;;
43606;SDS011;29197;44.788;10.366;2023-04-03T14:50:43;2.75;;;1.60;;
43606;SDS011;29197;44.788;10.366;2023-04-03T14:53:50;2.80;;;1.10;;
43606;SDS011;29197;44.788;10.366;2023-04-03T14:56:40;1.98;;;1.05;;
43606;SDS011;29197;44.788;10.366;2023-04-03T14:59:30;1.13;;;0.80;;
43606;SDS011;29197;44.788;10.366;2023-04-03T15:02:24;2.20;;;1.30;;
43606;SDS011;29197;44.788;10.366;2023-04-03T15:05:14;2.78;;;1.60;;
43606;SDS011;29197;44.788;10.366;2023-04-03T15:08:03;2.67;;;1.60;;
43606;SDS011;29197;44.788;10.366;2023-04-03T15:10:52;2.65;;;1.00;;
43606;SDS011;29197;44.788;10.366;2023-04-03T15:13:42;2.00;;;0.90;;
43606;SDS011;29197;44.788;10.366;2023-04-03T15:16:32;2.30;;;0.98;;
43606;SDS011;29197;44.788;10.366;2023-04-03T15:19:21;3.83;;;1.20;;
43606;SDS011;29197;44.788;10.366;2023-04-03T15:22:11;1.50;;;0.85;;
43606;SDS011;29197;44.788;10.366;2023-04-03T15:25:02;4.90;;;1.88;;
43606;SDS011;29197;44.788;10.366;2023-04-03T15:27:52;7.93;;;3.05;;
43606;SDS011;29197;44.788;10.366;2023-04-03T15:30:40;3.55;;;1.05;;
43606;SDS011;29197;44.788;10.366;2023-04-03T15:33:31;1.23;;;0.60;;
43606;SDS011;29197;44.788;10.366;2023-04-03T15:36:20;1.02;;;0.70;;
43606;SDS011;29197;44.788;10.366;2023-04-03T15:39:15;2.33;;;0.60;;
43606;SDS011;29197;44.788;10.366;2023-04-03T15:42:03;1.70;;;0.77;;
43606;SDS011;29197;44.788;10.366;2023-04-03T15:44:53;0.95;;;0.60;;
43606;SDS011;29197;44.788;10.366;2023-04-03T15:47:41;2.67;;;0.60;;
43606;SDS011;29197;44.788;10.366;2023-04-03T15:50:32;0.97;;;0.50;;
43606;SDS011;29197;44.788;10.366;2023-04-03T15:53:21;1.27;;;0.70;;
43606;SDS011;29197;44.788;10.366;2023-04-03T15:56:09;2.42;;;0.70;;
43606;SDS011;29197;44.788;10.366;2023-04-03T15:58:58;1.52;;;0.95;;
43606;SDS011;29197;44.788;10.366;2023-04-03T16:01:47;2.20;;;0.90;;
43606;SDS011;29197;44.788;10.366;2023-04-03T16:04:36;1.95;;;0.90;;
43606;SDS011;29197;44.788;10.366;2023-04-03T16:07:26;3.93;;;1.50;;
43606;SDS011;29197;44.788;10.366;2023-04-03T16:10:15;2.88;;;1.25;;
43606;SDS011;29197;44.788;10.366;2023-04-03T16:13:05;4.22;;;1.60;;
43606;SDS011;29197;44.788;10.366;2023-04-03T16:15:54;4.43;;;1.63;;
43606;SDS011;29197;44.788;10.366;2023-04-03T16:18:43;6.13;;;1.92;;
43606;SDS011;29197;44.788;10.366;2023-04-03T16:21:33;7.15;;;2.72;;
43606;SDS011;29197;44.788;10.366;2023-04-03T16:24:23;3.80;;;1.80;;
43606;SDS011;29197;44.788;10.366;2023-04-03T16:27:11;6.00;;;3.35;;
43606;SDS011;29197;44.788;10.366;2023-04-03T16:30:00;3.53;;;1.73;;
43606;SDS011;29197;44.788;10.366;2023-04-03T16:32:48;5.70;;;2.50;;
43606;SDS011;29197;44.788;10.366;2023-04-03T16:35:37;2.72;;;1.50;;
43606;SDS011;29197;44.788;10.366;2023-04-03T16:38:28;2.10;;;1.30;;
43606;SDS011;29197;44.788;10.366;2023-04-03T16:41:18;2.00;;;0.85;;
43606;SDS011;29197;44.788;10.366;2023-04-03T16:44:06;1.60;;;0.90;;
43606;SDS011;29197;44.788;10.366;2023-04-03T16:46:55;2.85;;;1.08;;
43606;SDS011;29197;44.788;10.366;2023-04-03T16:49:44;2.33;;;1.20;;
43606;SDS011;29197;44.788;10.366;2023-04-03T16:52:33;2.45;;;1.00;;
43606;SDS011;29197;44.788;10.366;2023-04-03T16:55:21;1.70;;;1.00;;
43606;SDS011;29197;44.788;10.366;2023-04-03T16:58:11;2.08;;;0.70;;
43606;SDS011;29197;44.788;10.366;2023-04-03T17:01:08;3.00;;;1.00;;
43606;SDS011;29197;44.788;10.366;2023-04-03T17:03:56;2.38;;;0.90;;
43606;SDS011;29197;44.788;10.366;2023-04-03T17:06:45;2.88;;;1.10;;
43606;SDS011;29197;44.788;10.366;2023-04-03T17:09:34;2.35;;;0.95;;
43606;SDS011;29197;44.788;10.366;2023-04-03T17:12:23;1.42;;;0.90;;
43606;SDS011;29197;44.788;10.366;2023-04-03T17:15:14;1.80;;;0.93;;
43606;SDS011;29197;44.788;10.366;2023-04-03T17:18:03;2.35;;;1.00;;
43606;SDS011;29197;44.788;10.366;2023-04-03T17:20:52;1.23;;;0.75;;
43606;SDS011;29197;44.788;10.366;2023-04-03T17:23:41;1.50;;;1.17;;